Saturday, February 28, 2015
19:16 UTC
  |  Log In   |  Register Free
Airport Search:

New Richmond Regional Airport
(KRNH)

New Richmond Regional Airport Diagram
No Airport Diagram Available

FAA data valid effective January 08, 2015 - March 05, 2015 (unless otherwise noted).

 
 
 
 
 
 
 
 
 
 
 
 
 
 

Current Aviation Weather for New Richmond Regional Airport (KRNH)

The most recent METAR observation for KRNH was updated at: 1816
METAR Summary (Translated METAR)
KRNH
281755Z AUTO 19011KT 10SM CLR M09/M16 A3049 RMK AO2 T10931160 11092 21201
KOEO
281855Z AUTO 19012G17KT 10SM CLR M07/M15 A3048 RMK AO2 T10701152
(11.6 nm NW from KRNH)
K21D
281851Z AUTO 18014G21KT 10SM CLR M07/M14 A3047 RMK AO2
(16.2 nm SW from KRNH)
TAF Summary (Translated TAF)
KRNH
281720Z 2818/0118 17006KT P6SM SCT200 FM282200 18011KT P6SM SCT040 BKN090 FM010300 19009KT P6SM OVC030 FM010600 19009KT 6SM -SN OVC025 FM011000 21006KT P6SM SCT020 BKN040 FM011500 25008KT P6SM SCT250
  Airport Weather Conditions for KRNH

 Current Weather at RNH
17° F
Fair
South winds at 12.7 mph
RNH NOAA Radar

Pressure: 30.48 in
Humidity: 57%
Wind: South at 12.7 MPH (11 KT)
Dew Point: 4.6°F
Visibility: 10.00 mi


Airport Weather Forecast for KRNH

Translated METAR and TAF for KRNH
Translated METAR for KRNH (1916 UTC 28 February 2015)
found at http://aviationweather.gov/adds/metars/
 
METAR text: KRNH 281855Z AUTO 17014KT 10SM CLR M08/M15 A3046 RMK AO2 T10821153
Conditions at: KRNH (NEW RICHMOND MUN, WI, US) observed 1855 UTC 28 February 2015
Temperature: -8.2°C (17°F)
Dewpoint: -15.3°C (4°F) [RH = 57%]
Pressure (altimeter): 30.46 inches Hg (1031.6 mb)
Winds: from the S (170 degrees) at 16 MPH (14 knots; 7.3 m/s)
Visibility: 10 or more miles (16+ km)
Ceiling: at least 12,000 feet AGL
Clouds: sky clear below 12,000 feet AGL
Weather: automated observation with no human augmentation;
there may or may not be significant weather present at this time
Translated TAF for KRNH
Forecast for: KRNH (NEW RICHMOND MUN, WI, US)
TAF Text: KRNH 281720Z 2818/0118 17006KT P6SM SCT200
Forecast period: 1800 to 2200 UTC 28 February 2015
Forecast type: FROM: standard forecast or significant change
Winds: from the S (170 degrees) at 7 MPH (6 knots; 3.1 m/s)
Visibility: 6 or more miles (10+ km)
Clouds: scattered clouds at 20000 feet AGL
Weather: no significant weather forecast for this period
TAF Text: FM282200 18011KT P6SM SCT040 BKN090
Forecast period: 2200 UTC 28 February 2015 to 0300 UTC 01 March 2015
Forecast type: FROM: standard forecast or significant change
Winds: from the S (180 degrees) at 13 MPH (11 knots; 5.7 m/s)
Visibility: 6 or more miles (10+ km)
Ceiling: 9000 feet AGL
Clouds: scattered clouds at 4000 feet AGL
broken clouds at 9000 feet AGL
Weather: no significant weather forecast for this period
TAF Text: FM010300 19009KT P6SM OVC030
Forecast period: 0300 to 0600 UTC 01 March 2015
Forecast type: FROM: standard forecast or significant change
Winds: from the S (190 degrees) at 10 MPH (9 knots; 4.7 m/s)
Visibility: 6 or more miles (10+ km)
Ceiling: 3000 feet AGL
Clouds: overcast cloud deck at 3000 feet AGL
Weather: no significant weather forecast for this period
TAF Text: FM010600 19009KT 6SM -SN OVC025
Forecast period: 0600 to 1000 UTC 01 March 2015
Forecast type: FROM: standard forecast or significant change
Winds: from the S (190 degrees) at 10 MPH (9 knots; 4.7 m/s)
Visibility: 6 miles (10 km)
Ceiling: 2500 feet AGL
Clouds: overcast cloud deck at 2500 feet AGL
Weather: -SN  (light snow)
TAF Text: FM011000 21006KT P6SM SCT020 BKN040
Forecast period: 1000 to 1500 UTC 01 March 2015
Forecast type: FROM: standard forecast or significant change
Winds: from the SSW (210 degrees) at 7 MPH (6 knots; 3.1 m/s)
Visibility: 6 or more miles (10+ km)
Ceiling: 4000 feet AGL
Clouds: scattered clouds at 2000 feet AGL
broken clouds at 4000 feet AGL
Weather: no significant weather forecast for this period
TAF Text: FM011500 25008KT P6SM SCT250
Forecast period: 1500 to 1800 UTC 01 March 2015
Forecast type: FROM: standard forecast or significant change
Winds: from the WSW (250 degrees) at 9 MPH (8 knots; 4.2 m/s)
Visibility: 6 or more miles (10+ km)
Clouds: scattered clouds at 25000 feet AGL
Weather: no significant weather forecast for this period

Find All Airport Services Find A Hotel Find A Rental Car Find A Golf Course Find A Restaurant $100 Hamburger



FBO's on the Field
FBO Company Facility Photos Services Transportation Aviation Fuel Prices: Prices include tax
Catering Weather Repair Courtesy Rental Type 100LL JetA JetA+ MOGAS 8087
 
Griggs Aviation

This FBO has not yet been rated
FS:Independent
Last Updated: Feb-11
Login to update fuel prices
SS:
Contact Griggs AviationMore FBO Information
 
Add another FBO Facility Photos Catering Weather Repair Courtesy Rental Type 100LL JetA JetA+ MOGAS 8087
Services Transportation Aviation Fuel Prices: Prices include tax


model-print
model-print
model-print
model-print